Chembulk Gibraltar — 9VFA5 — position and weather

sailwx.info

Track history (hours):
 
Tides and Currents Weather Stations Pressure Air Temp Water Temp Dewpoint Dewpoint Depression Visibility Wind Speed Wind Dir Waves Ship Positions

Chembulk Gibraltar

Last reported at 2015-Sep-02 17:24 UTC. Time now 2015-Sep-05 01:12 UTC.
Position N 29°43' W 095°01'.

Length 143 m; draft 6.3 m.

Type: Ship (hazmat cat B). MMSI: 565722000.

Date/timePositionNaut miles runAvg speedWind from/ knotsBaromVisibWave heightAir tempDewpointWater temp
2015-Sep-02 17:24N 29°43' W 095°01'3 4.2
2015-Sep-02 16:33N 29°41' W 094°59'1211.5
2015-Sep-02 15:33N 29°30' W 094°53'2 0.0
2015-Sep-01 06:33N 29°32' W 094°54'1211.8
2015-Sep-01 05:33N 29°42' W 095°00'6 0.2
2015-Aug-30 23:32N 29°45' W 095°06'7 7.0
2015-Aug-30 22:33N 29°41' W 094°59'1312.7
2015-Aug-30 21:33N 29°30' W 094°52'12 0.3
2015-Aug-29 06:19N 29°21' W 094°45'1112.7
2015-Aug-29 05:29N 29°29' W 094°52'1011.0
2015-Aug-29 04:33N 29°37' W 094°60'1 1.3
2015-Aug-29 03:29N 29°37' W 095°01'0 0.0
2015-Aug-29 02:23N 29°37' W 095°01'0 0.0
2015-Aug-29 00:17N 29°37' W 095°01'0 0.0
2015-Aug-28 16:34N 29°37' W 095°01'10 9.6
2015-Aug-28 15:33N 29°31' W 094°53'  
Track history (hours):
 
Tides and Currents Weather Stations Pressure Air Temp Water Temp Dewpoint Dewpoint Depression Visibility Wind Speed Wind Dir Waves Ship Positions

Chembulk Gibraltar

Last reported at 2015-Sep-02 17:24 UTC. Time now 2015-Sep-05 01:12 UTC.
Position N 29°43' W 095°01'.

Length 143 m; draft 6.3 m.

Type: Ship (hazmat cat B). MMSI: 565722000.

Date/timePositionNaut miles runAvg speedWind from/ knotsBaromVisibWave heightAir tempDewpointWater temp
2015-Sep-02 17:24N 29°43' W 095°01'3 4.2
2015-Sep-02 16:33N 29°41' W 094°59'1211.5
2015-Sep-02 15:33N 29°30' W 094°53'2 0.0
2015-Sep-01 06:33N 29°32' W 094°54'1211.8
2015-Sep-01 05:33N 29°42' W 095°00'6 0.2
2015-Aug-30 23:32N 29°45' W 095°06'7 7.0
2015-Aug-30 22:33N 29°41' W 094°59'1312.7
2015-Aug-30 21:33N 29°30' W 094°52'12 0.3
2015-Aug-29 06:19N 29°21' W 094°45'1112.7
2015-Aug-29 05:29N 29°29' W 094°52'1011.0
2015-Aug-29 04:33N 29°37' W 094°60'1 1.3
2015-Aug-29 03:29N 29°37' W 095°01'0 0.0
2015-Aug-29 02:23N 29°37' W 095°01'0 0.0
2015-Aug-29 00:17N 29°37' W 095°01'0 0.0
2015-Aug-28 16:34N 29°37' W 095°01'10 9.6
2015-Aug-28 15:33N 29°31' W 094°53'  

Dump ship's entire track history